CXA8416 ZPPP-ZSAM
Flight info
| Callsign | CXA8416 |
|---|---|
| Flight time | 1h 56m |
| Altitude | 37100 |
| Route | K0859S1130 LXI9Y LXI A599 POU G471 SHL W22 GUBLO R200 BEBEM A470 TEBON TEBON8X |
| Aircraft | B738/M-SDE2E3FGHIRWXY/LB1 |
Departure
| Time | 2026-05-08 04:17 |
|---|---|
| Airport | Kunming Changshui International Airport (ZPPP) |
Arrival
| Time | 2026-05-08 06:13 |
|---|---|
| Airport | Xiamen Gaoqi International Airport (ZSAM) |
| Time | Latitude | Longitude | Altitude | Speed | Heading |
|---|---|---|---|---|---|
| 2026-05-08 04:16 | 24.97389 | 103.17575 | 17588 ft | 375 kts | 220° |
| 2026-05-08 04:17 | 24.95258 | 103.15877 | 18160 ft | 378 kts | 219° |
| 2026-05-08 04:17 | 24.93090 | 103.14173 | 18687 ft | 382 kts | 219° |
| 2026-05-08 04:17 | 24.90911 | 103.12485 | 19193 ft | 383 kts | 219° |
| 2026-05-08 04:17 | 24.88743 | 103.10818 | 19724 ft | 383 kts | 219° |
| 2026-05-08 04:18 | 24.86404 | 103.09354 | 20193 ft | 393 kts | 204° |
| 2026-05-08 04:18 | 24.83671 | 103.08783 | 20632 ft | 408 kts | 187° |
| 2026-05-08 04:18 | 24.80805 | 103.09147 | 20982 ft | 425 kts | 169° |
| 2026-05-08 04:18 | 24.78109 | 103.10519 | 21429 ft | 440 kts | 150° |
| 2026-05-08 04:19 | 24.75878 | 103.12877 | 21923 ft | 452 kts | 130° |
| 2026-05-08 04:19 | 24.74410 | 103.15982 | 22330 ft | 463 kts | 115° |
| 2026-05-08 04:19 | 24.73248 | 103.19310 | 22715 ft | 467 kts | 113° |
| 2026-05-08 04:19 | 24.72129 | 103.22686 | 23065 ft | 471 kts | 113° |
| 2026-05-08 04:20 | 24.71022 | 103.26048 | 23421 ft | 474 kts | 113° |
| 2026-05-08 04:20 | 24.69880 | 103.29467 | 23794 ft | 477 kts | 114° |
| 2026-05-08 04:20 | 24.68712 | 103.32900 | 24113 ft | 479 kts | 114° |
| 2026-05-08 04:20 | 24.67522 | 103.36341 | 24416 ft | 481 kts | 114° |
| 2026-05-08 04:21 | 24.66320 | 103.39790 | 24733 ft | 483 kts | 115° |
| 2026-05-08 04:21 | 24.65126 | 103.43199 | 25010 ft | 484 kts | 115° |
| 2026-05-08 04:21 | 24.63909 | 103.46666 | 25241 ft | 486 kts | 115° |
| 2026-05-08 04:21 | 24.62686 | 103.50148 | 25451 ft | 488 kts | 114° |
| 2026-05-08 04:22 | 24.61462 | 103.53638 | 25742 ft | 488 kts | 114° |
| 2026-05-08 04:22 | 24.60237 | 103.57130 | 26017 ft | 489 kts | 114° |
| 2026-05-08 04:22 | 24.59022 | 103.60590 | 26240 ft | 491 kts | 114° |
| 2026-05-08 04:22 | 24.57784 | 103.64112 | 26444 ft | 493 kts | 114° |
| 2026-05-08 04:23 | 24.56542 | 103.67646 | 26661 ft | 495 kts | 114° |
| 2026-05-08 04:23 | 24.55313 | 103.71139 | 26871 ft | 496 kts | 115° |
| 2026-05-08 04:23 | 24.54062 | 103.74731 | 27090 ft | 498 kts | 112° |
| 2026-05-08 04:23 | 24.53058 | 103.78360 | 27286 ft | 502 kts | 108° |
| 2026-05-08 04:24 | 24.52241 | 103.82118 | 27484 ft | 505 kts | 105° |
| 2026-05-08 04:24 | 24.51510 | 103.85904 | 27684 ft | 506 kts | 104° |
| 2026-05-08 04:24 | 24.50805 | 103.89646 | 27868 ft | 508 kts | 104° |
| 2026-05-08 04:24 | 24.50070 | 103.93449 | 28029 ft | 509 kts | 105° |
| 2026-05-08 04:25 | 24.49305 | 103.97253 | 28166 ft | 511 kts | 105° |
| 2026-05-08 04:25 | 24.48515 | 104.01058 | 28346 ft | 512 kts | 105° |
| 2026-05-08 04:25 | 24.47708 | 104.04861 | 28551 ft | 512 kts | 106° |
| 2026-05-08 04:25 | 24.46889 | 104.08680 | 28672 ft | 514 kts | 106° |
| 2026-05-08 04:26 | 24.46061 | 104.12514 | 28782 ft | 517 kts | 106° |
| 2026-05-08 04:26 | 24.45230 | 104.16362 | 29008 ft | 517 kts | 106° |
| 2026-05-08 04:26 | 24.44404 | 104.20194 | 29234 ft | 517 kts | 106° |
| 2026-05-08 04:26 | 24.43574 | 104.24042 | 29360 ft | 519 kts | 106° |
| 2026-05-08 04:27 | 24.41912 | 104.31745 | 29559 ft | 523 kts | 106° |
| 2026-05-08 04:27 | 24.41071 | 104.35639 | 29740 ft | 524 kts | 106° |
| 2026-05-08 04:27 | 24.40233 | 104.39521 | 29960 ft | 523 kts | 106° |
| 2026-05-08 04:28 | 24.39392 | 104.43406 | 30147 ft | 523 kts | 106° |
| 2026-05-08 04:28 | 24.38549 | 104.47293 | 30290 ft | 524 kts | 106° |
| 2026-05-08 04:28 | 24.37707 | 104.51171 | 30542 ft | 521 kts | 106° |
| 2026-05-08 04:28 | 24.36866 | 104.55037 | 30723 ft | 522 kts | 106° |
| 2026-05-08 04:29 | 24.36022 | 104.58915 | 30836 ft | 523 kts | 106° |
| 2026-05-08 04:29 | 24.35175 | 104.62796 | 30979 ft | 524 kts | 106° |
| 2026-05-08 04:29 | 24.34328 | 104.66676 | 31158 ft | 523 kts | 106° |
| 2026-05-08 04:29 | 24.33480 | 104.70554 | 31367 ft | 522 kts | 106° |
| 2026-05-08 04:30 | 24.32633 | 104.74427 | 31568 ft | 522 kts | 106° |
| 2026-05-08 04:30 | 24.31785 | 104.78298 | 31732 ft | 522 kts | 106° |
| 2026-05-08 04:30 | 24.30934 | 104.82174 | 31853 ft | 523 kts | 106° |
| 2026-05-08 04:30 | 24.30081 | 104.86054 | 32024 ft | 524 kts | 106° |
| 2026-05-08 04:31 | 24.29228 | 104.89931 | 32293 ft | 522 kts | 106° |
| 2026-05-08 04:31 | 24.28379 | 104.93788 | 32525 ft | 520 kts | 106° |
| 2026-05-08 04:31 | 24.27540 | 104.97596 | 32715 ft | 520 kts | 106° |
| 2026-05-08 04:31 | 24.26677 | 105.01503 | 32877 ft | 520 kts | 106° |
| 2026-05-08 04:32 | 24.25836 | 105.05303 | 33102 ft | 519 kts | 106° |
| 2026-05-08 04:32 | 24.24986 | 105.09146 | 33346 ft | 518 kts | 106° |
| 2026-05-08 04:32 | 24.24136 | 105.12980 | 33579 ft | 517 kts | 106° |
| 2026-05-08 04:32 | 24.23286 | 105.16813 | 33795 ft | 517 kts | 106° |
| 2026-05-08 04:33 | 24.22435 | 105.20643 | 34029 ft | 517 kts | 106° |
| 2026-05-08 04:33 | 24.21567 | 105.24467 | 34206 ft | 517 kts | 107° |
| 2026-05-08 04:33 | 24.20657 | 105.28278 | 34388 ft | 517 kts | 107° |
| 2026-05-08 04:33 | 24.19727 | 105.32078 | 34631 ft | 516 kts | 107° |
| 2026-05-08 04:34 | 24.18794 | 105.35869 | 34894 ft | 514 kts | 107° |
| 2026-05-08 04:34 | 24.17865 | 105.39653 | 35143 ft | 513 kts | 107° |
| 2026-05-08 04:34 | 24.16943 | 105.43428 | 35351 ft | 513 kts | 107° |
| 2026-05-08 04:34 | 24.16035 | 105.47162 | 35515 ft | 513 kts | 107° |
| 2026-05-08 04:35 | 24.15118 | 105.50938 | 35721 ft | 513 kts | 107° |
| 2026-05-08 04:35 | 24.14202 | 105.54707 | 35987 ft | 512 kts | 107° |
| 2026-05-08 04:35 | 24.13288 | 105.58463 | 36274 ft | 510 kts | 107° |
| 2026-05-08 04:35 | 24.12376 | 105.62206 | 36497 ft | 509 kts | 108° |
| 2026-05-08 04:36 | 24.11461 | 105.65957 | 36679 ft | 509 kts | 107° |
| 2026-05-08 04:36 | 24.10549 | 105.69691 | 36928 ft | 508 kts | 107° |
| 2026-05-08 04:36 | 24.09675 | 105.73436 | 37172 ft | 507 kts | 105° |
| 2026-05-08 04:36 | 24.08897 | 105.77215 | 37180 ft | 511 kts | 104° |
| 2026-05-08 04:37 | 24.07447 | 105.84839 | 37181 ft | 510 kts | 103° |
| 2026-05-08 04:37 | 24.05996 | 105.92400 | 37173 ft | 506 kts | 104° |
| 2026-05-08 04:38 | 24.04506 | 105.99918 | 37175 ft | 504 kts | 104° |
| 2026-05-08 04:38 | 24.03003 | 106.07392 | 37155 ft | 502 kts | 104° |
| 2026-05-08 04:39 | 24.01499 | 106.14857 | 37167 ft | 503 kts | 104° |
| 2026-05-08 04:39 | 23.99994 | 106.22320 | 37171 ft | 503 kts | 104° |
| 2026-05-08 04:40 | 23.98479 | 106.29814 | 37167 ft | 505 kts | 104° |
| 2026-05-08 04:40 | 23.96955 | 106.37335 | 37153 ft | 507 kts | 104° |
| 2026-05-08 04:41 | 23.95424 | 106.44876 | 37157 ft | 509 kts | 104° |
| 2026-05-08 04:41 | 23.93893 | 106.52396 | 37164 ft | 510 kts | 104° |
| 2026-05-08 04:42 | 23.92363 | 106.59973 | 37160 ft | 511 kts | 102° |
| 2026-05-08 04:42 | 23.91630 | 106.67712 | 37153 ft | 513 kts | 94° |
| 2026-05-08 04:43 | 23.91221 | 106.75506 | 37165 ft | 513 kts | 94° |
| 2026-05-08 04:43 | 23.90859 | 106.81972 | 37154 ft | 512 kts | 95° |
| 2026-05-08 04:44 | 23.90280 | 106.91024 | 37161 ft | 510 kts | 95° |
| 2026-05-08 04:44 | 23.89844 | 106.97456 | 37161 ft | 509 kts | 95° |
| 2026-05-08 04:45 | 23.89322 | 107.05112 | 37162 ft | 508 kts | 95° |
| 2026-05-08 04:45 | 23.88708 | 107.14111 | 37164 ft | 507 kts | 95° |
| 2026-05-08 04:46 | 23.88270 | 107.20496 | 37169 ft | 506 kts | 95° |
| 2026-05-08 04:46 | 23.87742 | 107.28150 | 37169 ft | 505 kts | 95° |
| 2026-05-08 04:47 | 23.87210 | 107.35807 | 37166 ft | 505 kts | 95° |
| 2026-05-08 04:47 | 23.86674 | 107.43465 | 37175 ft | 505 kts | 96° |
| 2026-05-08 04:48 | 23.86137 | 107.51069 | 37167 ft | 505 kts | 96° |
| 2026-05-08 04:48 | 23.85593 | 107.58738 | 37162 ft | 506 kts | 96° |
| 2026-05-08 04:49 | 23.85044 | 107.66405 | 37164 ft | 506 kts | 96° |
| 2026-05-08 04:49 | 23.84492 | 107.74079 | 37169 ft | 507 kts | 96° |
| 2026-05-08 04:50 | 23.83936 | 107.81767 | 37176 ft | 507 kts | 96° |
| 2026-05-08 04:50 | 23.83427 | 107.89418 | 37173 ft | 508 kts | 94° |
| 2026-05-08 04:51 | 23.83060 | 107.97127 | 37166 ft | 508 kts | 94° |
| 2026-05-08 04:51 | 23.82691 | 108.04833 | 37172 ft | 508 kts | 94° |
| 2026-05-08 04:52 | 23.82292 | 108.12543 | 37173 ft | 508 kts | 94° |
| 2026-05-08 04:52 | 23.81881 | 108.20251 | 37157 ft | 508 kts | 95° |
| 2026-05-08 04:53 | 23.81446 | 108.27949 | 37172 ft | 508 kts | 95° |
| 2026-05-08 04:53 | 23.81004 | 108.35651 | 37155 ft | 508 kts | 95° |
| 2026-05-08 04:54 | 23.80563 | 108.43343 | 37177 ft | 507 kts | 95° |
| 2026-05-08 04:54 | 23.80120 | 108.51023 | 37178 ft | 507 kts | 95° |
| 2026-05-08 04:55 | 23.79673 | 108.58701 | 37172 ft | 506 kts | 95° |
| 2026-05-08 04:55 | 23.79227 | 108.66313 | 37175 ft | 506 kts | 95° |
| 2026-05-08 04:56 | 23.78772 | 108.73987 | 37163 ft | 506 kts | 95° |
| 2026-05-08 04:56 | 23.78315 | 108.81650 | 37169 ft | 505 kts | 95° |
| 2026-05-08 04:57 | 23.77854 | 108.89307 | 37168 ft | 505 kts | 95° |
| 2026-05-08 04:57 | 23.77390 | 108.96967 | 37168 ft | 505 kts | 95° |
| 2026-05-08 04:58 | 23.76921 | 109.04633 | 37161 ft | 506 kts | 95° |
| 2026-05-08 04:58 | 23.76449 | 109.12301 | 37167 ft | 506 kts | 95° |
| 2026-05-08 04:59 | 23.75440 | 109.19884 | 37169 ft | 504 kts | 104° |
| 2026-05-08 04:59 | 23.73853 | 109.27294 | 37153 ft | 505 kts | 105° |
| 2026-05-08 05:00 | 23.72261 | 109.34772 | 37151 ft | 505 kts | 104° |
| 2026-05-08 05:00 | 23.70735 | 109.42264 | 37150 ft | 506 kts | 104° |
| 2026-05-08 05:01 | 23.69221 | 109.49775 | 37144 ft | 506 kts | 104° |
| 2026-05-08 05:01 | 23.67700 | 109.57280 | 37146 ft | 507 kts | 104° |
| 2026-05-08 05:02 | 23.66168 | 109.64791 | 37139 ft | 507 kts | 104° |
| 2026-05-08 05:02 | 23.64623 | 109.72293 | 37143 ft | 507 kts | 104° |
| 2026-05-08 05:03 | 23.63073 | 109.79799 | 37140 ft | 507 kts | 104° |
| 2026-05-08 05:03 | 23.61521 | 109.87303 | 37142 ft | 507 kts | 104° |
| 2026-05-08 05:04 | 23.59978 | 109.94754 | 37147 ft | 507 kts | 104° |
| 2026-05-08 05:04 | 23.58419 | 110.02258 | 37147 ft | 507 kts | 104° |
| 2026-05-08 05:05 | 23.56859 | 110.09751 | 37134 ft | 507 kts | 104° |
| 2026-05-08 05:05 | 23.55294 | 110.17248 | 37129 ft | 508 kts | 104° |
| 2026-05-08 05:06 | 23.53723 | 110.24755 | 37147 ft | 508 kts | 104° |
| 2026-05-08 05:06 | 23.52146 | 110.32274 | 37130 ft | 509 kts | 104° |
| 2026-05-08 05:07 | 23.50575 | 110.39796 | 37129 ft | 509 kts | 103° |
| 2026-05-08 05:07 | 23.49049 | 110.47326 | 37126 ft | 508 kts | 103° |
| 2026-05-08 05:08 | 23.47537 | 110.54795 | 37124 ft | 508 kts | 103° |
| 2026-05-08 05:08 | 23.46004 | 110.62312 | 37137 ft | 508 kts | 103° |
| 2026-05-08 05:09 | 23.44466 | 110.69827 | 37127 ft | 508 kts | 103° |
| 2026-05-08 05:09 | 23.42908 | 110.77329 | 37125 ft | 508 kts | 104° |
| 2026-05-08 05:10 | 23.40514 | 110.88567 | 37125 ft | 507 kts | 103° |
| 2026-05-08 05:11 | 23.38922 | 110.96043 | 37125 ft | 507 kts | 103° |
| 2026-05-08 05:11 | 23.37329 | 111.03524 | 37122 ft | 507 kts | 104° |
| 2026-05-08 05:12 | 23.35746 | 111.10943 | 37125 ft | 507 kts | 104° |
| 2026-05-08 05:12 | 23.34164 | 111.18418 | 37116 ft | 507 kts | 103° |
| 2026-05-08 05:13 | 23.32656 | 111.25903 | 37112 ft | 507 kts | 103° |
| 2026-05-08 05:13 | 23.31151 | 111.33400 | 37119 ft | 506 kts | 103° |
| 2026-05-08 05:14 | 23.29632 | 111.40883 | 37109 ft | 507 kts | 103° |
| 2026-05-08 05:14 | 23.28105 | 111.48370 | 37117 ft | 507 kts | 103° |
| 2026-05-08 05:15 | 23.26567 | 111.55845 | 37112 ft | 507 kts | 103° |
| 2026-05-08 05:15 | 23.24967 | 111.63311 | 37113 ft | 507 kts | 104° |
| 2026-05-08 05:16 | 23.23358 | 111.70777 | 37120 ft | 507 kts | 104° |
| 2026-05-08 05:16 | 23.21756 | 111.78245 | 37110 ft | 507 kts | 104° |
| 2026-05-08 05:17 | 23.20160 | 111.85712 | 37111 ft | 507 kts | 103° |
| 2026-05-08 05:17 | 23.18619 | 111.93145 | 37122 ft | 508 kts | 103° |
| 2026-05-08 05:18 | 23.17073 | 112.00641 | 37106 ft | 509 kts | 103° |
| 2026-05-08 05:18 | 23.15513 | 112.08149 | 37106 ft | 509 kts | 103° |
| 2026-05-08 05:19 | 23.13945 | 112.15659 | 37095 ft | 510 kts | 103° |
| 2026-05-08 05:19 | 23.12372 | 112.23171 | 37091 ft | 509 kts | 103° |
| 2026-05-08 05:20 | 23.10809 | 112.30619 | 37107 ft | 508 kts | 103° |
| 2026-05-08 05:20 | 23.09232 | 112.38115 | 37104 ft | 509 kts | 103° |
| 2026-05-08 05:21 | 23.07652 | 112.45612 | 37089 ft | 510 kts | 103° |
| 2026-05-08 05:21 | 23.06523 | 112.53198 | 37095 ft | 508 kts | 94° |
| 2026-05-08 05:22 | 23.06085 | 112.60850 | 37089 ft | 507 kts | 92° |
| 2026-05-08 05:22 | 23.05665 | 112.68496 | 37095 ft | 507 kts | 92° |
| 2026-05-08 05:23 | 23.05173 | 112.76141 | 37089 ft | 508 kts | 93° |
| 2026-05-08 05:23 | 23.04648 | 112.83783 | 37091 ft | 508 kts | 93° |
| 2026-05-08 05:24 | 23.04119 | 112.91434 | 37081 ft | 508 kts | 93° |
| 2026-05-08 05:24 | 23.03591 | 112.99074 | 37081 ft | 508 kts | 93° |
| 2026-05-08 05:25 | 23.03060 | 113.06729 | 37082 ft | 508 kts | 93° |
| 2026-05-08 05:25 | 23.02525 | 113.14386 | 37077 ft | 509 kts | 93° |
| 2026-05-08 05:26 | 23.02390 | 113.22042 | 37076 ft | 506 kts | 82° |
| 2026-05-08 05:26 | 23.03247 | 113.29626 | 37060 ft | 506 kts | 80° |
| 2026-05-08 05:27 | 23.04140 | 113.37169 | 37066 ft | 506 kts | 81° |
| 2026-05-08 05:27 | 23.04975 | 113.44770 | 37081 ft | 507 kts | 81° |
| 2026-05-08 05:28 | 23.05781 | 113.52391 | 37060 ft | 508 kts | 81° |
| 2026-05-08 05:28 | 23.06582 | 113.60006 | 37065 ft | 507 kts | 81° |
| 2026-05-08 05:29 | 23.07384 | 113.67620 | 37066 ft | 507 kts | 81° |
| 2026-05-08 05:29 | 23.08177 | 113.75225 | 37055 ft | 508 kts | 83° |
| 2026-05-08 05:29 | 23.08045 | 113.79060 | 37056 ft | 510 kts | 102° |
| 2026-05-08 05:30 | 23.06925 | 113.82644 | 37064 ft | 508 kts | 118° |
| 2026-05-08 05:30 | 23.04961 | 113.85858 | 37101 ft | 503 kts | 133° |
| 2026-05-08 05:30 | 23.02474 | 113.88439 | 37061 ft | 500 kts | 149° |
| 2026-05-08 05:31 | 22.96357 | 113.91835 | 37057 ft | 492 kts | 160° |
| 2026-05-08 05:31 | 22.90136 | 113.94947 | 37061 ft | 493 kts | 159° |
| 2026-05-08 05:32 | 22.83857 | 113.97851 | 37060 ft | 489 kts | 163° |
| 2026-05-08 05:32 | 22.77587 | 114.00767 | 37033 ft | 495 kts | 150° |
| 2026-05-08 05:32 | 22.75793 | 114.02303 | 37074 ft | 499 kts | 137° |
| 2026-05-08 05:33 | 22.73656 | 114.05282 | 37055 ft | 503 kts | 119° |
| 2026-05-08 05:33 | 22.72049 | 114.10032 | 37056 ft | 503 kts | 99° |
| 2026-05-08 05:33 | 22.71831 | 114.12525 | 37043 ft | 501 kts | 87° |
| 2026-05-08 05:34 | 22.72540 | 114.19997 | 37058 ft | 499 kts | 80° |
| 2026-05-08 05:34 | 22.73445 | 114.27461 | 37044 ft | 501 kts | 80° |
| 2026-05-08 05:35 | 22.74257 | 114.34956 | 37058 ft | 502 kts | 81° |
| 2026-05-08 05:35 | 22.75018 | 114.42486 | 37064 ft | 504 kts | 81° |
| 2026-05-08 05:36 | 22.75780 | 114.50038 | 37055 ft | 505 kts | 81° |
| 2026-05-08 05:36 | 22.76558 | 114.57606 | 37062 ft | 506 kts | 81° |
| 2026-05-08 05:37 | 22.77365 | 114.65181 | 37055 ft | 506 kts | 81° |
| 2026-05-08 05:37 | 22.78166 | 114.72751 | 37054 ft | 506 kts | 81° |
| 2026-05-08 05:38 | 22.78964 | 114.80318 | 37059 ft | 506 kts | 81° |
| 2026-05-08 05:38 | 22.79766 | 114.87843 | 37066 ft | 505 kts | 81° |
| 2026-05-08 05:39 | 22.80570 | 114.95409 | 37071 ft | 505 kts | 81° |
| 2026-05-08 05:39 | 22.81367 | 115.02960 | 37061 ft | 504 kts | 81° |
| 2026-05-08 05:40 | 22.82159 | 115.10509 | 37055 ft | 504 kts | 81° |
| 2026-05-08 05:40 | 22.82947 | 115.18056 | 37050 ft | 503 kts | 81° |
| 2026-05-08 05:41 | 22.83729 | 115.25575 | 37053 ft | 502 kts | 81° |
| 2026-05-08 05:41 | 22.84507 | 115.33087 | 37058 ft | 501 kts | 81° |
| 2026-05-08 05:42 | 22.85279 | 115.40587 | 37052 ft | 500 kts | 81° |
| 2026-05-08 05:42 | 22.86043 | 115.48027 | 37043 ft | 500 kts | 81° |
| 2026-05-08 05:43 | 22.86808 | 115.55527 | 37058 ft | 500 kts | 81° |
| 2026-05-08 05:43 | 22.87570 | 115.63030 | 37055 ft | 501 kts | 81° |
| 2026-05-08 05:44 | 22.88331 | 115.70551 | 37054 ft | 502 kts | 81° |
| 2026-05-08 05:44 | 22.89091 | 115.78104 | 37054 ft | 504 kts | 81° |
| 2026-05-08 05:45 | 22.89844 | 115.85625 | 37063 ft | 505 kts | 81° |
| 2026-05-08 05:45 | 22.90602 | 115.93211 | 37054 ft | 506 kts | 81° |
| 2026-05-08 05:46 | 22.91361 | 116.00798 | 37058 ft | 506 kts | 81° |
| 2026-05-08 05:46 | 22.92134 | 116.08376 | 37054 ft | 505 kts | 81° |
| 2026-05-08 05:47 | 22.92927 | 116.15960 | 37059 ft | 505 kts | 81° |
| 2026-05-08 05:47 | 22.93710 | 116.23517 | 37059 ft | 504 kts | 81° |
| 2026-05-08 05:48 | 22.94533 | 116.31065 | 37055 ft | 501 kts | 75° |
| 2026-05-08 05:48 | 22.95617 | 116.34601 | 37065 ft | 489 kts | 58° |
| 2026-05-08 05:48 | 22.97406 | 116.37687 | 37058 ft | 480 kts | 46° |
| 2026-05-08 05:48 | 22.99722 | 116.40248 | 36579 ft | 472 kts | 31° |
| 2026-05-08 05:49 | 23.02318 | 116.42315 | 36073 ft | 467 kts | 30° |
| 2026-05-08 05:49 | 23.04939 | 116.44401 | 35442 ft | 466 kts | 30° |
| 2026-05-08 05:49 | 23.07543 | 116.46494 | 34793 ft | 466 kts | 31° |
| 2026-05-08 05:49 | 23.10146 | 116.48613 | 34115 ft | 468 kts | 31° |
| 2026-05-08 05:50 | 23.12741 | 116.50745 | 33365 ft | 469 kts | 32° |
| 2026-05-08 05:50 | 23.15339 | 116.52892 | 32630 ft | 469 kts | 32° |
| 2026-05-08 05:50 | 23.17936 | 116.55045 | 31918 ft | 469 kts | 33° |
| 2026-05-08 05:50 | 23.20528 | 116.57196 | 31177 ft | 470 kts | 33° |
| 2026-05-08 05:51 | 23.23132 | 116.59357 | 30430 ft | 471 kts | 33° |
| 2026-05-08 05:51 | 23.25720 | 116.61506 | 29866 ft | 467 kts | 33° |
| 2026-05-08 05:51 | 23.28291 | 116.63641 | 29242 ft | 462 kts | 33° |
| 2026-05-08 05:51 | 23.30837 | 116.65756 | 28674 ft | 457 kts | 34° |
| 2026-05-08 05:52 | 23.33352 | 116.67846 | 28127 ft | 451 kts | 34° |
| 2026-05-08 05:52 | 23.35830 | 116.69905 | 27587 ft | 446 kts | 34° |
| 2026-05-08 05:52 | 23.38254 | 116.71919 | 27067 ft | 441 kts | 34° |
| 2026-05-08 05:52 | 23.40681 | 116.73937 | 26548 ft | 437 kts | 34° |
| 2026-05-08 05:53 | 23.43082 | 116.75936 | 26040 ft | 432 kts | 34° |
| 2026-05-08 05:53 | 23.45359 | 116.78062 | 25622 ft | 429 kts | 41° |
| 2026-05-08 05:53 | 23.47433 | 116.80365 | 25190 ft | 425 kts | 44° |
| 2026-05-08 05:53 | 23.49455 | 116.82704 | 24726 ft | 422 kts | 44° |
| 2026-05-08 05:54 | 23.51462 | 116.85043 | 24209 ft | 427 kts | 44° |
| 2026-05-08 05:54 | 23.53531 | 116.87437 | 23682 ft | 439 kts | 45° |
| 2026-05-08 05:54 | 23.55639 | 116.89855 | 23067 ft | 440 kts | 44° |
| 2026-05-08 05:54 | 23.57741 | 116.92257 | 22498 ft | 434 kts | 44° |
| 2026-05-08 05:55 | 23.59816 | 116.94620 | 21963 ft | 429 kts | 44° |
| 2026-05-08 05:55 | 23.61870 | 116.96956 | 21439 ft | 424 kts | 44° |
| 2026-05-08 05:55 | 23.63901 | 116.99263 | 20925 ft | 419 kts | 44° |
| 2026-05-08 05:55 | 23.65911 | 117.01545 | 20421 ft | 415 kts | 44° |
| 2026-05-08 05:56 | 23.67903 | 117.03809 | 19896 ft | 412 kts | 44° |
| 2026-05-08 05:56 | 23.69877 | 117.06054 | 19382 ft | 409 kts | 44° |
| 2026-05-08 05:56 | 23.71839 | 117.08288 | 18869 ft | 406 kts | 44° |
| 2026-05-08 05:56 | 23.73789 | 117.10509 | 18363 ft | 404 kts | 44° |
| 2026-05-08 05:57 | 23.75726 | 117.12715 | 17805 ft | 401 kts | 44° |
| 2026-05-08 05:57 | 23.77694 | 117.14859 | 17248 ft | 398 kts | 41° |
| 2026-05-08 05:57 | 23.79728 | 117.16885 | 16724 ft | 394 kts | 40° |
| 2026-05-08 05:57 | 23.81775 | 117.18851 | 16229 ft | 391 kts | 39° |
| 2026-05-08 05:58 | 23.83814 | 117.20800 | 15728 ft | 388 kts | 39° |
| 2026-05-08 05:58 | 23.85831 | 117.22736 | 15242 ft | 385 kts | 39° |
| 2026-05-08 05:58 | 23.87825 | 117.24664 | 14768 ft | 383 kts | 39° |
| 2026-05-08 05:58 | 23.89808 | 117.26591 | 14285 ft | 379 kts | 40° |
| 2026-05-08 05:59 | 23.91771 | 117.28509 | 13807 ft | 377 kts | 39° |
| 2026-05-08 05:59 | 23.93722 | 117.30421 | 13267 ft | 376 kts | 40° |
| 2026-05-08 05:59 | 23.95650 | 117.32342 | 12791 ft | 373 kts | 39° |
| 2026-05-08 05:59 | 23.97574 | 117.34218 | 12323 ft | 369 kts | 39° |
| 2026-05-08 06:00 | 23.99481 | 117.36071 | 11872 ft | 366 kts | 39° |
| 2026-05-08 06:00 | 24.01378 | 117.37918 | 11406 ft | 363 kts | 39° |
| 2026-05-08 06:00 | 24.03227 | 117.39724 | 10972 ft | 360 kts | 39° |
| 2026-05-08 06:00 | 24.05059 | 117.41520 | 10823 ft | 347 kts | 40° |
| 2026-05-08 06:01 | 24.06832 | 117.43259 | 10660 ft | 336 kts | 39° |
| 2026-05-08 06:01 | 24.08551 | 117.44955 | 10530 ft | 329 kts | 39° |
| 2026-05-08 06:01 | 24.10236 | 117.46614 | 10397 ft | 323 kts | 39° |
| 2026-05-08 06:01 | 24.11926 | 117.48208 | 10295 ft | 317 kts | 31° |
| 2026-05-08 06:02 | 24.13756 | 117.49538 | 10072 ft | 317 kts | 37° |
| 2026-05-08 06:02 | 24.15230 | 117.51319 | 10009 ft | 313 kts | 49° |
| 2026-05-08 06:02 | 24.16507 | 117.53213 | 10009 ft | 305 kts | 50° |
| 2026-05-08 06:02 | 24.17895 | 117.54971 | 9526 ft | 313 kts | 46° |
| 2026-05-08 06:03 | 24.19382 | 117.56761 | 9046 ft | 318 kts | 46° |
| 2026-05-08 06:03 | 24.20868 | 117.58548 | 8668 ft | 316 kts | 45° |
| 2026-05-08 06:03 | 24.22327 | 117.60297 | 8377 ft | 314 kts | 46° |
| 2026-05-08 06:03 | 24.23792 | 117.62056 | 8041 ft | 311 kts | 46° |
| 2026-05-08 06:04 | 24.25249 | 117.63803 | 7723 ft | 309 kts | 45° |
| 2026-05-08 06:04 | 24.26686 | 117.65525 | 7409 ft | 307 kts | 45° |
| 2026-05-08 06:04 | 24.28128 | 117.67253 | 7108 ft | 305 kts | 46° |
| 2026-05-08 06:04 | 24.29559 | 117.68968 | 6797 ft | 304 kts | 47° |
| 2026-05-08 06:05 | 24.30980 | 117.70674 | 6496 ft | 303 kts | 47° |
| 2026-05-08 06:05 | 24.32400 | 117.72379 | 6176 ft | 302 kts | 46° |
| 2026-05-08 06:05 | 24.33809 | 117.74071 | 5863 ft | 296 kts | 47° |
| 2026-05-08 06:05 | 24.35163 | 117.75699 | 5746 ft | 281 kts | 47° |
| 2026-05-08 06:06 | 24.36463 | 117.77261 | 5609 ft | 273 kts | 47° |
| 2026-05-08 06:06 | 24.37712 | 117.78762 | 5512 ft | 266 kts | 46° |
| 2026-05-08 06:06 | 24.38944 | 117.80245 | 5411 ft | 260 kts | 48° |
| 2026-05-08 06:06 | 24.39798 | 117.81919 | 5229 ft | 251 kts | 78° |
| 2026-05-08 06:07 | 24.39997 | 117.83760 | 5047 ft | 241 kts | 85° |
| 2026-05-08 06:07 | 24.40125 | 117.85573 | 4805 ft | 237 kts | 85° |
| 2026-05-08 06:07 | 24.40251 | 117.87378 | 4576 ft | 236 kts | 85° |
| 2026-05-08 06:07 | 24.40379 | 117.89154 | 4370 ft | 231 kts | 85° |
| 2026-05-08 06:08 | 24.40507 | 117.90895 | 4102 ft | 226 kts | 85° |
| 2026-05-08 06:08 | 24.40633 | 117.92594 | 3862 ft | 221 kts | 85° |
| 2026-05-08 06:08 | 24.40978 | 117.94205 | 3617 ft | 217 kts | 59° |
| 2026-05-08 06:08 | 24.41990 | 117.95390 | 3464 ft | 209 kts | 47° |
| 2026-05-08 06:09 | 24.42908 | 117.96576 | 3341 ft | 204 kts | 53° |
| 2026-05-08 06:09 | 24.43712 | 117.97885 | 3116 ft | 209 kts | 61° |
| 2026-05-08 06:09 | 24.44693 | 117.99071 | 2810 ft | 208 kts | 43° |
| 2026-05-08 06:09 | 24.45615 | 118.00217 | 2545 ft | 194 kts | 61° |
| 2026-05-08 06:10 | 24.46333 | 118.01432 | 2294 ft | 186 kts | 56° |
| 2026-05-08 06:10 | 24.47107 | 118.02520 | 2078 ft | 176 kts | 55° |
| 2026-05-08 06:10 | 24.47825 | 118.03520 | 1849 ft | 160 kts | 55° |
| 2026-05-08 06:10 | 24.48477 | 118.04433 | 1675 ft | 145 kts | 55° |
| 2026-05-08 06:11 | 24.49096 | 118.05305 | 1469 ft | 144 kts | 55° |
| 2026-05-08 06:11 | 24.49705 | 118.06159 | 1270 ft | 141 kts | 54° |
| 2026-05-08 06:11 | 24.50300 | 118.06995 | 1080 ft | 132 kts | 53° |
| 2026-05-08 06:11 | 24.50840 | 118.07749 | 927 ft | 127 kts | 54° |
| 2026-05-08 06:12 | 24.51401 | 118.08539 | 774 ft | 132 kts | 56° |
| 2026-05-08 06:12 | 24.51966 | 118.09333 | 609 ft | 134 kts | 56° |
| 2026-05-08 06:12 | 24.52556 | 118.10163 | 403 ft | 137 kts | 55° |
| 2026-05-08 06:12 | 24.53134 | 118.10971 | 246 ft | 139 kts | 54° |
| 2026-05-08 06:13 | 24.53735 | 118.11815 | 67 ft | 140 kts | 54° |
| 2026-05-08 06:13 | 24.54245 | 118.12567 | 52 ft | 97 kts | 44° |
| 2026-05-08 06:13 | 24.54514 | 118.12963 | 51 ft | 49 kts | 81° |
| 2026-05-08 06:13 | 24.54530 | 118.13085 | 51 ft | 7 kts | 78° |
| 2026-05-08 06:14 | 24.54522 | 118.13129 | 51 ft | 5 kts | 136° |
| 2026-05-08 06:14 | 24.54498 | 118.13142 | 51 ft | 3 kts | 171° |
| 2026-05-08 06:14 | 24.54477 | 118.13146 | 51 ft | 3 kts | 171° |
| 2026-05-08 06:14 | 24.54458 | 118.13152 | 51 ft | 3 kts | 159° |
| 2026-05-08 06:15 | 24.54448 | 118.13158 | 51 ft | 0 kts | 143° |
| 2026-05-08 06:16 | 24.54446 | 118.13159 | 51 ft | 1 kts | 143° |
| 2026-05-08 06:17 | 24.54420 | 118.13181 | 50 ft | 4 kts | 142° |
| 2026-05-08 06:17 | 24.54392 | 118.13206 | 51 ft | 6 kts | 142° |
| 2026-05-08 06:17 | 24.54375 | 118.13251 | 51 ft | 7 kts | 88° |
| 2026-05-08 06:18 | 24.54388 | 118.13292 | 51 ft | 5 kts | 90° |
| 2026-05-08 06:18 | 24.54373 | 118.13317 | 47 ft | 3 kts | 134° |
| 2026-05-08 06:18 | 24.54359 | 118.13329 | 51 ft | 3 kts | 142° |
| 2026-05-08 06:18 | 24.54348 | 118.13338 | 50 ft | 1 kts | 142° |
| 2026-05-08 06:19 | 24.54344 | 118.13342 | 51 ft | 0 kts | 142° |
| 2026-05-08 06:19 | 24.54341 | 118.13344 | 51 ft | 0 kts | 142° |
| 2026-05-08 06:19 | 24.54340 | 118.13345 | 51 ft | 0 kts | 142° |
| 2026-05-08 06:20 | 24.54341 | 118.13344 | 51 ft | 1 kts | 142° |
| 2026-05-08 06:20 | 24.54342 | 118.13344 | 51 ft | 0 kts | 142° |